Time;durP1;ratioP1;P1;durP2;ratioP2;P2;SDS_P1;SDS_P2;PMS_P1;PMS_P2;Temp;Humidity;BMP_temperature;BMP_pressure;BME280_temperature;BME280_humidity;BME280_pressure;Samples;Min_cycle;Max_cycle;Signal;HPM_P1;HPM_P2
2020/12/09 00:01:47;;;;;;;8.88;7.10;;;5.20;99.90;;;;;;5073966;28;20081;-90
2020/12/09 00:04:13;;;;;;;7.97;6.72;;;5.20;99.90;;;;;;5088540;28;20020;-90
2020/12/09 00:06:40;;;;;;;8.57;7.00;;;5.20;99.90;;;;;;5093730;28;20380;-90
2020/12/09 00:09:07;;;;;;;9.38;7.10;;;5.20;99.90;;;;;;5083712;28;20506;-90
2020/12/09 00:11:33;;;;;;;8.65;7.13;;;5.30;99.90;;;;;;5092884;28;20043;-90
2020/12/09 00:13:59;;;;;;;10.05;7.93;;;5.20;99.90;;;;;;5088673;28;20013;-90
2020/12/09 00:16:26;;;;;;;9.27;6.63;;;5.10;99.90;;;;;;5073296;28;20025;-90
2020/12/09 00:18:52;;;;;;;9.75;7.78;;;5.10;99.90;;;;;;5074182;28;20029;-90
2020/12/09 00:21:22;;;;;;;8.30;7.05;;;5.20;99.90;;;;;;5073718;28;20453;-90
2020/12/09 00:23:49;;;;;;;9.32;7.65;;;5.10;99.90;;;;;;5074590;28;20035;-90
2020/12/09 00:26:22;;;;;;;9.95;7.20;;;5.20;99.90;;;;;;5080620;28;20503;-90
2020/12/09 00:28:48;;;;;;;9.63;7.30;;;5.10;99.90;;;;;;5087130;28;20040;-90
2020/12/09 00:31:19;;;;;;;9.63;7.50;;;5.10;99.90;;;;;;5078789;28;20392;-90
2020/12/09 00:33:46;;;;;;;9.77;7.75;;;5.20;99.90;;;;;;5084664;28;20024;-90
2020/12/09 00:36:20;;;;;;;10.27;7.78;;;5.30;99.90;;;;;;5092663;28;20028;-90
2020/12/09 00:38:47;;;;;;;9.70;7.65;;;5.60;99.90;;;;;;5093455;28;20608;-90
2020/12/09 00:41:18;;;;;;;9.52;7.50;;;5.30;99.90;;;;;;5092206;28;20035;-90
2020/12/09 00:43:44;;;;;;;11.93;8.00;;;5.20;99.90;;;;;;5082047;28;20020;-90
2020/12/09 00:46:21;;;;;;;11.65;7.88;;;5.20;99.90;;;;;;5084752;28;20031;-90
2020/12/09 00:48:47;;;;;;;11.07;7.85;;;5.70;99.90;;;;;;5072832;28;20094;-90
2020/12/09 00:51:24;;;;;;;9.90;8.00;;;5.20;99.90;;;;;;5072857;28;20024;-90
2020/12/09 00:53:51;;;;;;;10.95;7.95;;;5.20;99.90;;;;;;5073325;28;20013;-90
2020/12/09 00:56:17;;;;;;;9.98;8.15;;;5.10;99.90;;;;;;5076774;28;20023;-90
2020/12/09 00:58:42;;;;;;;10.55;8.18;;;5.00;99.90;;;;;;5084759;28;20024;-90
2020/12/09 01:01:10;;;;;;;12.32;8.35;;;5.10;99.90;;;;;;5085785;28;20400;-90
2020/12/09 01:03:36;;;;;;;11.20;8.40;;;5.20;99.90;;;;;;5083849;28;20019;-90
2020/12/09 01:06:03;;;;;;;10.55;8.40;;;5.10;99.90;;;;;;5092725;28;20040;-90
2020/12/09 01:08:29;;;;;;;12.32;8.95;;;5.10;99.90;;;;;;5083061;28;20020;-90
2020/12/09 01:10:55;;;;;;;11.73;8.52;;;5.70;99.90;;;;;;5091893;28;20016;-90
2020/12/09 01:13:21;;;;;;;10.75;8.40;;;5.20;99.90;;;;;;5075494;28;20396;-90
2020/12/09 01:15:47;;;;;;;11.68;8.13;;;5.10;99.90;;;;;;5084678;28;20025;-90
2020/12/09 01:18:12;;;;;;;11.00;8.32;;;5.10;99.90;;;;;;5085269;28;20020;-90
2020/12/09 01:20:38;;;;;;;12.00;9.43;;;5.70;99.90;;;;;;5072535;28;20032;-89
2020/12/09 01:23:05;;;;;;;11.85;8.75;;;5.00;99.90;;;;;;5072916;28;20117;-90
2020/12/09 01:25:31;;;;;;;12.95;9.23;;;5.00;99.90;;;;;;5085525;28;20035;-90
2020/12/09 01:28:00;;;;;;;14.30;9.52;;;4.90;99.90;;;;;;5072591;28;20024;-89
2020/12/09 01:30:27;;;;;;;11.75;9.15;;;5.00;99.90;;;;;;5082380;28;20029;-90
2020/12/09 01:32:53;;;;;;;11.60;9.27;;;5.00;99.90;;;;;;5072628;28;20051;-90
2020/12/09 01:35:19;;;;;;;12.40;9.25;;;4.90;99.90;;;;;;5090579;28;20020;-90
2020/12/09 01:37:44;;;;;;;12.10;9.43;;;5.00;99.90;;;;;;5088686;28;20025;-90
2020/12/09 01:40:10;;;;;;;11.63;9.30;;;5.10;99.90;;;;;;5072076;28;20029;-90
2020/12/09 01:42:35;;;;;;;11.68;8.65;;;5.00;99.90;;;;;;5075549;28;20058;-90
2020/12/09 01:45:02;;;;;;;12.43;9.25;;;5.10;99.90;;;;;;5076505;28;20029;-90
2020/12/09 01:47:28;;;;;;;11.70;9.52;;;5.00;99.90;;;;;;5076527;28;20021;-90
2020/12/09 01:49:54;;;;;;;14.35;9.30;;;4.90;99.90;;;;;;5076200;28;20033;-90
2020/12/09 01:52:21;;;;;;;13.15;9.27;;;4.90;99.90;;;;;;5075973;28;20047;-90
2020/12/09 01:54:50;;;;;;;11.90;8.57;;;4.90;99.90;;;;;;5093026;28;20020;-89
2020/12/09 01:57:15;;;;;;;12.20;9.05;;;4.90;99.90;;;;;;5078431;28;20017;-90
2020/12/09 01:59:41;;;;;;;11.57;8.48;;;4.90;99.90;;;;;;5081810;28;20479;-90
2020/12/09 02:02:07;;;;;;;10.73;8.45;;;4.80;99.90;;;;;;5091528;28;20016;-90
2020/12/09 02:04:34;;;;;;;12.38;8.88;;;4.80;99.90;;;;;;5096511;28;20046;-90
2020/12/09 02:07:00;;;;;;;10.30;7.97;;;4.90;99.90;;;;;;5087001;28;20097;-90
2020/12/09 02:09:26;;;;;;;11.85;8.25;;;4.90;99.90;;;;;;5093436;28;20020;-90
2020/12/09 02:11:53;;;;;;;12.38;9.23;;;4.90;99.90;;;;;;5080975;28;20036;-90
2020/12/09 02:14:20;;;;;;;11.30;8.52;;;5.10;99.90;;;;;;5081278;28;20070;-90
2020/12/09 02:17:04;;;;;;;11.98;8.82;;;4.90;99.90;;;;;;5091392;28;20431;-90
2020/12/09 02:19:29;;;;;;;12.63;9.00;;;4.90;99.90;;;;;;5076801;28;20074;-90
2020/12/09 02:22:08;;;;;;;11.65;8.88;;;4.90;99.90;;;;;;5075526;28;20020;-90
2020/12/09 02:24:33;;;;;;;13.48;9.88;;;4.90;99.90;;;;;;5092576;28;20481;-90
2020/12/09 02:26:59;;;;;;;13.07;8.85;;;4.90;99.90;;;;;;5076004;28;20028;-90
2020/12/09 02:29:24;;;;;;;13.55;9.23;;;4.90;99.90;;;;;;5088402;28;20123;-90
2020/12/09 02:31:50;;;;;;;12.45;9.00;;;5.00;99.90;;;;;;5077588;28;20024;-91
2020/12/09 02:34:16;;;;;;;13.32;9.50;;;4.90;99.90;;;;;;5075817;28;20028;-90
2020/12/09 02:36:41;;;;;;;12.30;9.23;;;4.80;99.90;;;;;;5108988;28;20067;-90
2020/12/09 02:39:07;;;;;;;12.90;9.15;;;4.90;99.90;;;;;;5078069;28;20024;-90
2020/12/09 02:41:32;;;;;;;13.55;10.00;;;4.90;99.90;;;;;;5086862;28;20103;-90
2020/12/09 02:43:58;;;;;;;11.93;8.75;;;5.00;99.90;;;;;;5079299;28;20024;-90
2020/12/09 02:46:24;;;;;;;12.10;8.90;;;4.90;99.90;;;;;;5092882;28;20028;-90
2020/12/09 02:48:50;;;;;;;12.32;8.85;;;4.70;99.90;;;;;;5077311;28;20427;-90
2020/12/09 02:51:16;;;;;;;12.23;9.35;;;4.90;99.90;;;;;;5075005;28;20047;-90
2020/12/09 02:53:41;;;;;;;12.25;9.23;;;4.90;99.90;;;;;;5074171;28;20013;-90
2020/12/09 02:56:07;;;;;;;11.05;8.63;;;4.90;99.90;;;;;;5075464;28;20104;-90
2020/12/09 02:58:33;;;;;;;11.20;8.35;;;5.00;99.90;;;;;;5075235;28;20369;-90
2020/12/09 03:00:58;;;;;;;12.60;9.18;;;5.00;99.90;;;;;;5090579;28;20086;-90
2020/12/09 03:03:24;;;;;;;11.23;8.30;;;5.10;99.90;;;;;;5093419;28;20021;-90
2020/12/09 03:05:49;;;;;;;11.93;8.85;;;5.00;99.90;;;;;;5077983;28;20525;-90
2020/12/09 03:08:15;;;;;;;10.77;8.15;;;5.00;99.90;;;;;;5094941;28;20024;-90
2020/12/09 03:10:41;;;;;;;12.02;8.77;;;4.90;99.90;;;;;;5094203;28;20035;-90
2020/12/09 03:13:07;;;;;;;11.00;7.93;;;5.10;99.90;;;;;;5094309;28;20032;-90
2020/12/09 03:15:32;;;;;;;11.38;8.45;;;5.00;99.90;;;;;;5095843;28;20032;-90
2020/12/09 03:17:58;;;;;;;11.43;8.05;;;5.00;99.90;;;;;;5095550;28;20052;-90
2020/12/09 03:20:23;;;;;;;10.20;7.80;;;5.00;99.90;;;;;;5074751;28;20037;-90
2020/12/09 03:22:49;;;;;;;12.85;8.25;;;5.00;99.90;;;;;;5090123;28;20023;-90
2020/12/09 03:25:15;;;;;;;10.48;8.40;;;5.00;99.90;;;;;;5085266;28;20492;-90
2020/12/09 03:27:40;;;;;;;11.45;8.57;;;5.00;99.90;;;;;;5074586;28;20025;-90
2020/12/09 03:30:06;;;;;;;10.95;8.20;;;5.10;99.90;;;;;;5084930;28;20546;-90
2020/12/09 03:32:32;;;;;;;10.32;7.90;;;5.00;99.90;;;;;;5094757;28;20032;-90
2020/12/09 03:34:57;;;;;;;10.80;8.20;;;5.00;99.90;;;;;;5093866;28;20125;-90
2020/12/09 03:37:23;;;;;;;10.77;8.18;;;4.90;99.90;;;;;;5094015;28;20016;-90
2020/12/09 03:39:48;;;;;;;12.05;8.00;;;4.80;99.90;;;;;;5081984;28;20030;-89
2020/12/09 03:42:14;;;;;;;11.25;8.50;;;4.80;99.90;;;;;;5093902;28;20038;-90
2020/12/09 03:44:40;;;;;;;10.77;8.35;;;4.80;99.90;;;;;;5078657;28;20050;-90
2020/12/09 03:47:05;;;;;;;10.15;8.00;;;4.90;99.90;;;;;;5074080;28;20134;-90
2020/12/09 03:49:31;;;;;;;10.82;8.43;;;4.80;99.90;;;;;;5073608;28;20033;-90
2020/12/09 03:51:57;;;;;;;11.25;8.15;;;4.80;99.90;;;;;;5082022;28;20020;-90
2020/12/09 03:54:24;;;;;;;10.13;8.38;;;4.80;99.90;;;;;;5092717;28;20034;-90
2020/12/09 03:56:50;;;;;;;12.60;9.48;;;4.80;99.90;;;;;;5091180;28;20025;-89
2020/12/09 03:59:16;;;;;;;11.05;8.68;;;4.80;99.90;;;;;;5075008;28;20032;-89
2020/12/09 04:01:41;;;;;;;11.50;9.05;;;4.80;99.90;;;;;;5074917;28;20096;-90
2020/12/09 04:04:07;;;;;;;11.80;8.93;;;4.90;99.90;;;;;;5078543;28;20027;-89
2020/12/09 04:06:33;;;;;;;11.90;9.00;;;4.80;99.90;;;;;;5093323;28;20491;-90
2020/12/09 04:08:58;;;;;;;11.05;8.70;;;4.70;99.90;;;;;;5091805;28;20032;-89
2020/12/09 04:11:24;;;;;;;12.57;9.05;;;4.70;99.90;;;;;;5073385;28;20041;-90
2020/12/09 04:13:50;;;;;;;12.85;9.60;;;5.10;99.90;;;;;;5073521;28;20021;-89
2020/12/09 04:16:15;;;;;;;11.55;8.75;;;4.90;99.90;;;;;;5087204;28;20495;-89
2020/12/09 04:18:41;;;;;;;13.57;9.48;;;4.70;99.90;;;;;;5090616;28;20034;-89
2020/12/09 04:21:06;;;;;;;11.48;9.27;;;4.70;99.90;;;;;;5073398;28;20035;-89
2020/12/09 04:23:32;;;;;;;12.32;9.40;;;4.60;99.90;;;;;;5086967;28;20107;-89
2020/12/09 04:25:57;;;;;;;13.65;10.00;;;4.70;99.90;;;;;;5088354;28;20020;-89
2020/12/09 04:28:23;;;;;;;13.85;9.60;;;4.70;99.90;;;;;;5082279;28;20032;-90
2020/12/09 04:30:49;;;;;;;12.63;9.60;;;4.70;99.90;;;;;;5072951;28;20036;-90
2020/12/09 04:33:14;;;;;;;13.05;9.57;;;4.70;99.90;;;;;;5073079;28;20126;-89
2020/12/09 04:35:41;;;;;;;11.82;9.15;;;4.60;99.90;;;;;;5072937;28;20013;-89
2020/12/09 04:38:07;;;;;;;13.85;10.43;;;4.60;99.90;;;;;;5092094;28;20153;-89
2020/12/09 04:40:33;;;;;;;13.13;10.02;;;4.60;99.90;;;;;;5093208;28;20122;-89
2020/12/09 04:43:01;;;;;;;13.48;10.02;;;4.90;99.90;;;;;;5092969;28;20027;-90
2020/12/09 04:45:31;;;;;;;13.77;9.95;;;4.50;99.90;;;;;;5094004;28;20030;-89
2020/12/09 04:48:09;;;;;;;14.07;10.27;;;4.70;99.90;;;;;;5092982;28;20031;-90
2020/12/09 04:51:08;;;;;;;13.35;9.45;;;4.40;99.90;;;;;;5073154;28;20024;-89
2020/12/09 04:53:34;;;;;;;15.02;10.93;;;4.30;99.90;;;;;;5083724;28;20043;-89
2020/12/09 04:56:00;;;;;;;13.43;10.68;;;4.70;99.90;;;;;;5061536;28;20025;-89
2020/12/09 04:58:38;;;;;;;16.45;11.13;;;4.30;99.90;;;;;;5073035;28;20032;-89
2020/12/09 05:01:06;;;;;;;12.93;10.10;;;4.60;99.90;;;;;;5074958;28;20047;-90
2020/12/09 05:03:39;;;;;;;14.65;10.98;;;4.70;99.90;;;;;;5088682;28;20116;-89
2020/12/09 05:06:05;;;;;;;13.63;10.63;;;4.40;99.90;;;;;;5059649;28;20044;-89
2020/12/09 05:08:34;;;;;;;16.42;11.23;;;4.40;99.90;;;;;;5056361;28;20044;-89
2020/12/09 05:11:04;;;;;;;16.13;11.85;;;4.50;99.90;;;;;;5056784;28;20028;-89
2020/12/09 05:13:33;;;;;;;14.18;10.18;;;4.80;99.90;;;;;;5091686;28;20117;-89
2020/12/09 05:15:58;;;;;;;14.23;10.93;;;4.30;99.90;;;;;;5074537;28;20024;-90
2020/12/09 05:18:42;;;;;;;15.43;11.73;;;4.30;99.90;;;;;;5068773;28;20035;-89
2020/12/09 05:21:15;;;;;;;15.80;11.02;;;4.30;99.90;;;;;;5090698;28;20496;-89
2020/12/09 05:24:01;;;;;;;15.32;11.30;;;4.50;99.90;;;;;;5074894;28;20085;-89
2020/12/09 05:26:36;;;;;;;14.18;11.18;;;4.60;99.90;;;;;;5075058;28;20031;-89
2020/12/09 05:29:16;;;;;;;16.33;11.13;;;4.30;99.90;;;;;;5075007;28;20637;-89
2020/12/09 05:31:43;;;;;;;15.60;11.50;;;4.70;99.90;;;;;;5082513;28;20028;-89
2020/12/09 05:34:27;;;;;;;15.65;10.73;;;4.50;99.90;;;;;;5092510;28;21304;-89
2020/12/09 05:36:55;;;;;;;16.75;11.77;;;4.20;99.90;;;;;;5092747;28;20035;-89
2020/12/09 05:39:22;;;;;;;14.65;10.73;;;4.20;99.90;;;;;;5073841;28;20023;-89
2020/12/09 05:41:47;;;;;;;15.35;11.23;;;4.80;99.90;;;;;;5073734;28;20032;-90
2020/12/09 05:44:13;;;;;;;15.10;11.10;;;4.50;99.90;;;;;;5072317;28;20024;-89
2020/12/09 05:46:55;;;;;;;15.00;10.98;;;4.30;99.90;;;;;;5084634;28;20032;-89
2020/12/09 05:49:26;;;;;;;15.38;10.77;;;4.60;99.90;;;;;;5088866;28;20024;-89
2020/12/09 05:52:14;;;;;;;15.52;11.45;;;4.60;99.90;;;;;;5072335;28;20020;-90
2020/12/09 05:54:42;;;;;;;17.85;11.85;;;4.30;99.90;;;;;;5090866;28;20020;-89
2020/12/09 05:57:11;;;;;;;16.05;11.40;;;4.60;99.90;;;;;;5075951;28;20052;-89
2020/12/09 05:59:48;;;;;;;78.18;49.13;;;4.70;99.90;;;;;;5089234;28;20028;-89
2020/12/09 06:02:18;;;;;;;18.20;13.30;;;4.30;99.90;;;;;;5085265;28;20031;-89
2020/12/09 06:04:49;;;;;;;19.15;13.55;;;4.30;99.90;;;;;;5076600;28;20023;-89
2020/12/09 06:07:16;;;;;;;16.23;12.68;;;4.30;99.90;;;;;;5078890;28;20025;-89
2020/12/09 06:10:15;;;;;;;15.50;12.00;;;4.50;99.90;;;;;;5077702;28;20557;-89
2020/12/09 06:12:57;;;;;;;18.15;13.27;;;4.40;99.90;;;;;;5087611;28;20044;-89
2020/12/09 06:15:27;;;;;;;19.27;13.50;;;4.40;99.90;;;;;;5071816;28;20029;-89
2020/12/09 06:18:20;;;;;;;18.48;13.30;;;4.60;99.90;;;;;;5072333;28;20025;-89
2020/12/09 06:20:46;;;;;;;17.23;12.88;;;4.40;99.90;;;;;;5104507;28;20036;-89
2020/12/09 06:23:13;;;;;;;15.70;11.98;;;4.60;99.90;;;;;;5098128;28;20103;-89
2020/12/09 06:25:40;;;;;;;17.85;13.50;;;4.50;99.90;;;;;;5071712;28;20031;-89
2020/12/09 06:28:16;;;;;;;17.48;12.43;;;4.40;99.90;;;;;;5073549;28;20025;-88
2020/12/09 06:30:42;;;;;;;14.55;10.77;;;4.40;99.90;;;;;;5075559;28;20056;-89
2020/12/09 06:33:09;;;;;;;24.05;15.85;;;4.50;99.90;;;;;;5076518;28;20034;-89
2020/12/09 06:35:35;;;;;;;15.75;11.77;;;4.70;99.90;;;;;;5076600;28;20028;-89
2020/12/09 06:38:07;;;;;;;15.52;12.02;;;4.30;99.90;;;;;;5080347;28;20073;-89
2020/12/09 06:40:33;;;;;;;15.30;10.93;;;4.30;99.90;;;;;;5095115;28;20024;-89
2020/12/09 06:43:09;;;;;;;17.52;12.00;;;4.70;99.90;;;;;;5076839;28;20029;-89
2020/12/09 06:45:45;;;;;;;15.45;11.15;;;4.40;99.90;;;;;;5075200;28;20039;-90
2020/12/09 06:48:12;;;;;;;14.57;11.70;;;4.20;99.90;;;;;;5086811;28;20107;-91
2020/12/09 06:50:38;;;;;;;16.77;12.68;;;4.20;99.90;;;;;;5095421;28;20502;-91
2020/12/09 06:53:18;;;;;;;14.35;10.80;;;4.70;99.90;;;;;;5095956;28;20165;-91
2020/12/09 06:55:45;;;;;;;15.15;11.45;;;4.60;99.90;;;;;;5085116;28;20021;-90
2020/12/09 06:58:30;;;;;;;16.55;12.27;;;4.30;99.90;;;;;;5090496;28;20024;-92
2020/12/09 07:01:06;;;;;;;17.25;11.82;;;4.30;99.90;;;;;;5095621;28;20023;-91
2020/12/09 07:03:37;;;;;;;16.08;12.77;;;4.30;99.90;;;;;;5095217;28;20024;-93
2020/12/09 07:06:21;;;;;;;24.88;16.08;;;4.20;99.90;;;;;;5095290;28;20440;-92
2020/12/09 07:08:48;;;;;;;22.00;14.43;;;4.30;99.90;;;;;;5095449;28;20056;-93
2020/12/09 07:11:14;;;;;;;21.63;15.40;;;4.20;99.90;;;;;;5092639;28;20020;-92
2020/12/09 07:13:40;;;;;;;20.85;14.40;;;4.50;99.90;;;;;;5093812;28;20043;-91
2020/12/09 07:16:06;;;;;;;19.15;13.80;;;4.20;99.90;;;;;;5095091;28;20066;-93
2020/12/09 07:18:36;;;;;;;22.50;15.38;;;4.30;99.90;;;;;;5095211;28;20149;-93
2020/12/09 07:21:05;;;;;;;20.48;14.32;;;4.80;99.90;;;;;;5079707;28;20086;-93
2020/12/09 07:23:31;;;;;;;17.23;12.65;;;4.30;99.90;;;;;;5075638;28;20024;-93
2020/12/09 07:25:59;;;;;;;18.10;14.52;;;4.30;99.90;;;;;;5077281;28;20034;-95
2020/12/09 07:28:31;;;;;;;16.05;12.32;;;4.80;99.90;;;;;;5077329;28;20040;-95
2020/12/09 07:31:07;;;;;;;23.02;16.17;;;4.20;99.90;;;;;;5076017;28;20024;-91
2020/12/09 07:33:33;;;;;;;17.88;13.35;;;4.20;99.90;;;;;;5091098;28;20051;-86
2020/12/09 07:36:09;;;;;;;17.70;13.20;;;4.20;99.90;;;;;;5082739;28;20024;-96
2020/12/09 07:38:34;;;;;;;17.08;12.48;;;4.30;99.90;;;;;;5075268;28;20028;-91
2020/12/09 07:41:02;;;;;;;16.30;11.90;;;4.30;99.90;;;;;;5086618;28;20036;-90
2020/12/09 07:43:28;;;;;;;17.98;12.88;;;4.40;99.90;;;;;;5076341;28;20060;-89
2020/12/09 07:46:01;;;;;;;15.85;12.35;;;4.50;99.90;;;;;;5084590;28;20046;-89
2020/12/09 07:48:29;;;;;;;16.00;12.05;;;4.50;99.90;;;;;;5079023;28;20020;-89
2020/12/09 07:50:55;;;;;;;20.88;13.52;;;4.60;99.90;;;;;;5094278;28;20060;-88
2020/12/09 07:53:21;;;;;;;18.70;12.70;;;4.80;99.90;;;;;;5077569;28;20039;-89
2020/12/09 07:55:48;;;;;;;17.48;12.13;;;4.90;99.90;;;;;;5073196;28;20028;-89
2020/12/09 07:58:16;;;;;;;16.20;11.90;;;4.50;99.90;;;;;;5073686;28;20017;-89
2020/12/09 08:00:44;;;;;;;16.83;12.23;;;4.30;99.90;;;;;;5078790;28;20036;-89
2020/12/09 08:03:18;;;;;;;15.50;11.48;;;4.60;99.90;;;;;;5074307;28;20028;-89
2020/12/09 08:05:44;;;;;;;17.45;12.07;;;4.60;99.90;;;;;;5073371;28;20031;-94
2020/12/09 08:08:12;;;;;;;15.95;11.75;;;4.50;99.90;;;;;;5073643;28;20024;-89
2020/12/09 08:10:42;;;;;;;17.42;12.20;;;4.50;99.90;;;;;;5075685;28;20020;-89
2020/12/09 08:13:12;;;;;;;16.35;12.30;;;4.50;99.90;;;;;;5093196;28;20454;-89
2020/12/09 08:15:43;;;;;;;17.75;12.63;;;4.60;99.90;;;;;;5071799;28;20078;-89
2020/12/09 08:18:20;;;;;;;17.13;12.20;;;4.60;99.90;;;;;;5080892;28;20020;-89
2020/12/09 08:20:47;;;;;;;16.63;12.52;;;4.60;99.90;;;;;;5091620;28;20035;-88
2020/12/09 08:23:13;;;;;;;19.55;13.38;;;4.70;99.90;;;;;;5092734;28;20039;-89
2020/12/09 08:25:48;;;;;;;16.83;12.60;;;4.70;99.90;;;;;;5092200;28;20028;-89
2020/12/09 08:28:14;;;;;;;18.75;13.32;;;4.50;99.90;;;;;;5093987;28;20020;-89
2020/12/09 08:30:41;;;;;;;17.45;12.27;;;4.70;99.90;;;;;;5093172;28;20039;-89
2020/12/09 08:33:12;;;;;;;16.30;11.88;;;4.80;99.90;;;;;;5092596;28;20020;-89
2020/12/09 08:35:44;;;;;;;19.10;12.70;;;4.70;99.90;;;;;;5092506;28;20115;-89
2020/12/09 08:38:12;;;;;;;18.55;12.40;;;4.90;99.90;;;;;;5078857;28;20020;-89
2020/12/09 08:40:38;;;;;;;18.70;12.48;;;4.80;99.90;;;;;;5092582;28;20024;-88
2020/12/09 08:43:03;;;;;;;20.15;13.88;;;5.10;99.90;;;;;;5089217;28;20368;-89
2020/12/09 08:45:29;;;;;;;20.70;15.73;;;5.30;99.90;;;;;;5072212;28;20035;-89
2020/12/09 08:47:55;;;;;;;19.48;12.52;;;5.70;99.90;;;;;;5086047;28;20047;-89
2020/12/09 08:50:21;;;;;;;17.52;12.68;;;5.90;99.90;;;;;;5092202;28;20132;-89
2020/12/09 08:52:46;;;;;;;15.75;12.55;;;6.20;99.90;;;;;;5091872;28;20480;-89
2020/12/09 08:55:13;;;;;;;14.98;11.82;;;6.10;99.90;;;;;;5092295;28;20081;-89
2020/12/09 08:57:38;;;;;;;14.65;11.48;;;6.20;99.90;;;;;;5084305;28;20028;-89
2020/12/09 09:00:08;;;;;;;14.73;11.30;;;8.20;99.90;;;;;;5085143;28;20024;-89
2020/12/09 09:02:34;;;;;;;15.27;11.25;;;9.00;99.90;;;;;;5092272;28;20048;-89
2020/12/09 09:04:59;;;;;;;15.88;11.57;;;8.20;99.90;;;;;;5092551;28;20064;-89
2020/12/09 09:07:25;;;;;;;13.00;10.40;;;8.10;99.90;;;;;;5092068;28;20054;-89
2020/12/09 09:09:51;;;;;;;12.48;10.55;;;8.30;99.90;;;;;;5091987;28;20135;-89
2020/12/09 09:12:18;;;;;;;13.35;11.23;;;7.90;99.90;;;;;;5091483;28;20109;-89
2020/12/09 09:14:44;;;;;;;14.65;10.85;;;7.50;99.90;;;;;;5092110;28;20020;-89
2020/12/09 09:17:10;;;;;;;18.83;15.68;;;7.90;99.90;;;;;;5090998;28;20059;-89
2020/12/09 09:19:36;;;;;;;16.73;13.02;;;12.30;99.90;;;;;;5091271;28;20063;-89
2020/12/09 09:22:01;;;;;;;16.08;12.50;;;13.40;99.90;;;;;;5088867;28;20032;-89
2020/12/09 09:24:27;;;;;;;18.25;11.30;;;18.10;99.90;;;;;;5071691;28;20123;-89
2020/12/09 09:26:53;;;;;;;13.05;10.50;;;19.10;99.90;;;;;;5071208;28;20071;-89
2020/12/09 09:29:18;;;;;;;11.75;10.50;;;17.80;99.90;;;;;;5071253;28;20024;-89
2020/12/09 09:31:44;;;;;;;11.30;9.88;;;17.90;99.90;;;;;;5071557;28;20029;-89
2020/12/09 09:34:10;;;;;;;15.70;12.13;;;17.10;99.90;;;;;;5105544;28;20508;-89
2020/12/09 09:36:36;;;;;;;15.88;12.85;;;15.40;99.90;;;;;;5072372;28;20104;-88
2020/12/09 09:39:01;;;;;;;14.32;11.13;;;13.90;99.90;;;;;;5072776;28;20020;-89
2020/12/09 09:41:27;;;;;;;14.15;11.80;;;13.50;99.90;;;;;;5071554;28;20430;-89
2020/12/09 09:43:53;;;;;;;13.05;11.32;;;12.50;99.90;;;;;;5104235;28;20365;-89
2020/12/09 09:46:22;;;;;;;15.57;12.43;;;12.00;99.90;;;;;;5072404;28;20033;-89
2020/12/09 09:48:49;;;;;;;13.73;11.50;;;11.20;99.90;;;;;;5076936;28;20020;-89
2020/12/09 09:51:15;;;;;;;13.15;11.35;;;11.20;99.90;;;;;;5074640;28;20032;-89
2020/12/09 09:53:41;;;;;;;21.58;11.95;;;11.00;99.90;;;;;;5071393;28;20012;-89
2020/12/09 09:56:07;;;;;;;10.85;9.20;;;12.40;99.90;;;;;;5085164;28;20028;-89
2020/12/09 09:58:32;;;;;;;11.88;9.85;;;14.10;99.90;;;;;;5090956;28;20024;-89
2020/12/09 10:00:58;;;;;;;11.85;8.77;;;18.00;99.90;;;;;;5090902;28;20035;-89
2020/12/09 10:03:24;;;;;;;13.23;11.18;;;21.00;99.90;;;;;;5093854;28;20020;-89
2020/12/09 10:05:51;;;;;;;11.98;9.90;;;21.20;99.90;;;;;;5091826;28;20056;-89
2020/12/09 10:08:17;;;;;;;9.60;8.57;;;19.20;99.90;;;;;;5094314;28;20077;-89
2020/12/09 10:10:43;;;;;;;13.82;10.70;;;17.80;99.90;;;;;;5095219;28;20032;-89
2020/12/09 10:13:08;;;;;;;11.60;10.13;;;17.90;99.90;;;;;;5094732;28;20043;-89
2020/12/09 10:15:34;;;;;;;11.73;10.10;;;19.90;99.90;;;;;;5096138;28;20031;-89
2020/12/09 10:18:00;;;;;;;10.27;9.25;;;22.80;99.90;;;;;;5094936;28;20027;-89
2020/12/09 10:20:25;;;;;;;10.43;9.43;;;21.40;99.90;;;;;;5093827;28;20450;-89
2020/12/09 10:22:53;;;;;;;12.07;9.35;;;22.80;99.90;;;;;;5095559;28;20023;-89
2020/12/09 10:25:18;;;;;;;10.23;8.30;;;23.10;99.90;;;;;;5079028;28;20021;-90
2020/12/09 10:27:44;;;;;;;9.73;8.15;;;22.00;99.90;;;;;;5073979;28;20024;-89
2020/12/09 10:30:09;;;;;;;10.48;8.07;;;23.30;99.90;;;;;;5075425;28;20033;-90
2020/12/09 10:32:35;;;;;;;12.07;9.38;;;23.20;99.90;;;;;;5074198;28;20029;-89
2020/12/09 10:35:02;;;;;;;7.18;6.47;;;20.60;99.90;;;;;;5075173;28;20438;-89
2020/12/09 10:37:28;;;;;;;8.15;7.35;;;22.50;99.90;;;;;;5076211;28;20024;-89
2020/12/09 10:39:53;;;;;;;8.10;6.72;;;24.40;99.90;;;;;;5093949;28;20415;-89
2020/12/09 10:42:20;;;;;;;7.65;6.95;;;23.60;99.90;;;;;;5092239;28;20020;-89
2020/12/09 10:44:46;;;;;;;6.97;6.28;;;24.20;99.90;;;;;;5082883;28;20039;-90
2020/12/09 10:47:12;;;;;;;7.72;6.93;;;25.60;99.90;;;;;;5093566;28;20107;-89
2020/12/09 10:49:43;;;;;;;8.93;8.10;;;25.40;99.90;;;;;;5092473;28;20032;-89
2020/12/09 10:52:09;;;;;;;8.57;6.93;;;24.90;99.90;;;;;;5075042;28;20032;-89
2020/12/09 10:54:34;;;;;;;7.45;6.75;;;23.90;99.90;;;;;;5084479;28;20024;-89
2020/12/09 10:57:01;;;;;;;7.57;6.65;;;22.70;99.90;;;;;;5093811;28;20099;-90
2020/12/09 10:59:27;;;;;;;7.57;6.88;;;25.00;99.90;;;;;;5081752;28;20472;-89
2020/12/09 11:01:54;;;;;;;7.50;6.70;;;25.80;99.90;;;;;;5093588;28;20115;-89
2020/12/09 11:04:20;;;;;;;7.40;6.70;;;27.40;99.90;;;;;;5094944;28;20027;-89
2020/12/09 11:06:46;;;;;;;7.63;6.65;;;27.20;99.90;;;;;;5092972;28;20081;-89
2020/12/09 11:09:12;;;;;;;7.18;6.47;;;24.80;99.90;;;;;;5093657;28;20024;-90
2020/12/09 11:11:45;;;;;;;7.97;6.32;;;24.90;99.90;;;;;;5094684;28;20048;-90
2020/12/09 11:14:10;;;;;;;7.35;6.65;;;24.50;99.90;;;;;;5093115;28;20531;-89
2020/12/09 11:16:36;;;;;;;8.05;7.10;;;24.10;99.90;;;;;;5079041;28;20020;-89
2020/12/09 11:19:02;;;;;;;11.10;7.40;;;20.90;99.90;;;;;;5072975;28;20029;-89
2020/12/09 11:21:27;;;;;;;8.07;7.28;;;16.90;99.90;;;;;;5074366;28;20115;-89
2020/12/09 11:23:53;;;;;;;8.50;6.85;;;22.40;99.90;;;;;;5089176;28;20538;-89
2020/12/09 11:26:21;;;;;;;7.30;6.65;;;19.50;99.90;;;;;;5073139;28;20082;-89
2020/12/09 11:28:47;;;;;;;7.18;6.57;;;17.70;99.90;;;;;;5073075;28;20028;-89
2020/12/09 11:31:13;;;;;;;7.20;6.50;;;19.40;99.90;;;;;;5074240;28;20404;-89
2020/12/09 11:33:39;;;;;;;7.22;6.53;;;18.30;99.90;;;;;;5074257;28;20024;-89
2020/12/09 11:36:05;;;;;;;6.55;5.95;;;19.10;99.90;;;;;;5074245;28;20099;-89
2020/12/09 11:38:31;;;;;;;6.00;5.50;;;21.40;99.90;;;;;;5072819;28;20024;-89
2020/12/09 11:40:57;;;;;;;6.57;5.97;;;21.40;99.90;;;;;;5073953;28;20024;-88
2020/12/09 11:43:25;;;;;;;6.30;5.70;;;22.10;99.90;;;;;;5073933;28;20043;-89
2020/12/09 11:45:52;;;;;;;6.90;6.25;;;21.90;99.90;;;;;;5081533;28;20464;-89
2020/12/09 11:48:17;;;;;;;6.97;6.13;;;23.20;99.90;;;;;;5093942;28;20089;-89
2020/12/09 11:50:43;;;;;;;6.95;6.25;;;17.20;99.90;;;;;;5094205;28;20426;-89
2020/12/09 11:53:09;;;;;;;6.90;5.93;;;17.90;99.90;;;;;;5092692;28;20035;-89
2020/12/09 11:55:35;;;;;;;6.25;5.65;;;19.40;99.90;;;;;;5093439;28;20124;-89
2020/12/09 11:58:01;;;;;;;6.35;5.75;;;20.70;99.90;;;;;;5074940;28;20445;-90
2020/12/09 12:00:28;;;;;;;6.65;5.90;;;18.20;99.90;;;;;;5091640;28;20024;-89
2020/12/09 12:02:54;;;;;;;6.95;6.13;;;20.00;99.90;;;;;;5092277;28;20055;-89
2020/12/09 12:05:22;;;;;;;6.32;5.72;;;17.70;99.90;;;;;;5091789;28;20488;-89
2020/12/09 12:07:48;;;;;;;6.47;5.88;;;16.70;99.90;;;;;;5093756;28;20020;-89
2020/12/09 12:10:14;;;;;;;5.43;4.93;;;15.80;99.90;;;;;;5090503;28;20051;-89
2020/12/09 12:12:39;;;;;;;5.82;5.22;;;15.20;99.90;;;;;;5092285;28;20126;-89
2020/12/09 12:15:05;;;;;;;6.50;5.80;;;14.40;99.90;;;;;;5079260;28;20440;-89
2020/12/09 12:17:31;;;;;;;6.10;5.50;;;14.60;99.90;;;;;;5092069;28;20109;-89
2020/12/09 12:19:56;;;;;;;6.95;5.30;;;14.50;99.90;;;;;;5092278;28;20024;-89
2020/12/09 12:22:22;;;;;;;5.60;5.00;;;17.10;99.90;;;;;;5086796;28;20024;-89
2020/12/09 12:24:47;;;;;;;6.68;5.65;;;14.50;99.90;;;;;;5083706;28;20028;-88
2020/12/09 12:27:13;;;;;;;6.38;5.60;;;14.80;99.90;;;;;;5091268;28;20032;-88
2020/12/09 12:29:39;;;;;;;7.10;6.40;;;15.80;99.90;;;;;;5087012;28;20024;-88
2020/12/09 12:32:04;;;;;;;7.88;6.82;;;13.60;99.90;;;;;;5071540;28;20431;-89
2020/12/09 12:34:30;;;;;;;7.25;6.40;;;12.90;99.90;;;;;;5073378;28;20020;-88
2020/12/09 12:36:57;;;;;;;8.93;6.22;;;11.80;99.90;;;;;;5071748;28;20139;-88
2020/12/09 12:39:22;;;;;;;6.32;5.72;;;12.10;99.90;;;;;;5072757;28;20023;-89
2020/12/09 12:41:48;;;;;;;6.30;5.70;;;12.90;99.90;;;;;;5071570;28;20119;-88
2020/12/09 12:44:14;;;;;;;6.70;6.00;;;13.50;99.90;;;;;;5090547;28;20024;-89
2020/12/09 12:46:39;;;;;;;7.75;6.72;;;13.30;99.90;;;;;;5077931;28;20555;-89